EDT,Max TemperatureF,Mean TemperatureF,Min TemperatureF,Max Dew PointF,MeanDew PointF,Min DewpointF,Max Humidity, Mean Humidity, Min Humidity, Max Sea Level PressureIn, Mean Sea Level PressureIn, Min Sea Level PressureIn, Max VisibilityMiles, Mean VisibilityMiles, Min VisibilityMiles, Max Wind SpeedMPH, Mean Wind SpeedMPH, Max Gust SpeedMPH,PrecipitationIn, CloudCover, Events, WindDirDegrees
2013-3-1,53,44,35,37,34,32,100,70,44,29.95,29.92,29.86,10,10,10,12,5,18,0.00,0,,281
2013-3-2,50,41,32,37,34,32,100,79,50,29.94,29.90,29.84,10,10,10,14,4,21,0.00,4,,269
2013-3-3,50,41,32,36,30,27,100,74,43,30.01,29.95,29.90,10,10,10,16,7,23,0.00,2,,294
2013-3-4,53,42,30,34,26,21,93,61,28,30.17,30.11,30.01,10,10,7,15,7,22,0.00,0,,285
2013-3-5,64,48,33,59,43,34,100,73,37,30.14,29.98,29.70,10,10,7,22,7,31,0.00,4,Rain,204
2013-3-6,59,50,41,59,32,27,100,56,40,30.08,29.84,29.66,10,10,10,26,16,36,0.00,1,,286
2013-3-7,59,44,30,36,32,30,100,67,36,30.23,30.16,30.08,10,10,10,14,7,20,0.00,0,,308
2013-3-8,59,46,33,34,31,28,87,60,31,30.29,30.23,30.17,10,10,10,21,7,25,0.00,0,,333
2013-3-9,60,46,33,43,35,30,100,67,39,30.33,30.28,30.24,10,10,10,14,6,18,0.00,0,,38
2013-3-10,62,47,32,45,38,30,100,75,31,30.32,30.27,30.23,10,10,10,12,3,16,0.00,0,,105
2013-3-11,69,55,41,61,52,41,100,84,53,30.24,30.10,29.95,10,9,1,16,3,28,0.00,6,,158
2013-3-12,69,60,51,64,60,46,100,88,72,29.95,29.87,29.81,10,10,7,23,9,29,0.00,5,Rain,222
2013-3-13,64,52,41,46,36,30,87,55,30,30.13,30.04,29.94,10,10,10,20,7,29,0.00,0,,292
2013-3-14,53,43,32,34,26,21,100,55,33,30.31,30.22,30.11,10,10,7,14,7,25,0.00,0,,319
2013-3-15,62,45,28,46,35,28,100,68,38,30.24,30.15,30.04,10,10,10,14,5,18,0.00,0,,183
2013-3-16,78,66,53,52,47,43,77,56,30,30.04,29.94,29.85,10,10,10,21,13,31,0.00,0,,231
2013-3-17,78,64,51,55,50,45,88,63,39,30.06,29.99,29.94,10,10,10,16,9,22,0.00,0,,227
2013-3-18,62,56,51,63,54,50,100,94,72,30.12,30.02,29.87,10,8,1,10,4,,0.00,7,Rain-Thunderstorm,90
2013-3-19,71,58,46,63,50,41,100,78,33,30.01,29.92,29.81,10,10,3,15,9,23,0.00,4,Rain-Thunderstorm,288
2013-3-20,59,47,35,43,32,23,100,55,29,30.12,30.00,29.84,10,10,10,15,5,18,0.00,1,,49
2013-3-21,55,44,33,34,29,23,100,60,30,29.96,29.84,29.78,10,10,10,18,7,28,0.00,0,,290
2013-3-22,50,42,33,39,27,19,81,57,34,30.12,30.06,29.97,10,10,10,14,6,18,0.00,2,,51
2013-3-23,50,42,35,48,41,36,100,91,58,30.07,30.02,29.92,10,10,7,13,2,16,0.00,5,Rain,35
2013-3-24,62,52,42,63,51,43,100,99,88,29.90,29.63,29.46,10,8,2,32,10,47,0.00,8,Rain-Thunderstorm,17
2013-3-25,53,48,41,45,34,27,100,65,41,29.94,29.73,29.59,10,10,10,26,11,45,0.00,2,,269
2013-3-26,51,42,33,32,29,27,87,61,40,30.17,30.03,29.95,10,10,10,15,10,26,0.00,2,,284
2013-3-27,57,44,32,34,31,28,100,70,36,30.27,30.21,30.17,10,10,10,14,5,23,0.00,0,,290
2013-3-28,59,46,32,34,30,27,93,60,31,30.31,30.25,30.19,10,10,10,15,6,25,0.00,0,,330
2013-3-29,59,44,30,41,35,30,100,68,39,30.37,30.30,30.24,10,10,7,14,3,18,0.00,1,,141
2013-3-30,69,56,44,52,47,43,100,77,43,30.27,30.19,30.10,10,10,10,13,3,21,0.00,4,,133
2013-3-31,73,62,50,59,55,46,100,78,57,30.12,30.00,29.91,10,10,3,18,8,25,0.00,5,Rain-Thunderstorm,210